Winnipeg James Armstrong Richardson International Airport
CYWG : now visible

Airfield :











YOU CAN JOIN US ON...

 
LOGIN :

Register | Disclaimer

   EN    FR    IT 

 









Legend :    VFR   Marginal VFR   IFR   Intensive IFR   Very Intensive IFR
Visi :
Ceiling :
>= 8 km
>= 3000ft
5 to 8 km
1000 to 3000 ft
1500m to 5 km
500 to 1000 ft
800 to 1500m
200 to 500 ft
< 800m
< 200 ft
Symbols :   Thunderstorms  Fog  Heavy snow  Heavy precipitations  Wind > 20 kt







- Airport Elevation : 783 ft
- IATA code : YWG


CYWG - Winnipeg James Armstrong Richardson International

CURRENT METAR :
  • 181800Z 21018G24KT 15SM SCT035 BKN180 24/15 A2952 RMK SC3AC2 SLP998 DENSITY ALT 2500FT

EXPIRED METARs :
  • 181700Z 19020KT 15SM SCT180 23/15 A2950 RMK AC4 SLP991 DENSITY ALT 2400FT
  • 181600Z 19017G26KT 15SM FEW140 SCT180 BKN250 22/16 A2951 RMK AC2AC2CI1 SLP995 DENSITY ALT 2300FT

TAF TAF CYWG
Valid from the 18 at 18:00 until the 19 at 18:00 UTC


181740Z 1818/1918 20018G28KT P6SM SCT140
FM182100 24015G25KT P6SM SCT020 BKN120
TEMPO 1821/1824 P6SM -SHRA FEW008 BKN020 BKN120
PROB30 1821/1824 VRB20G30KT 4SM TSRA BKN020CB
FM190000 30015G25KT P6SM FEW005 BKN015
TEMPO 1900/1906 P6SM -SHRA BKN005 OVC015
FM190600 32010KT P6SM SCT005
TEMPO 1906/1913 2SM BR BKN005
FM191300 01006KT P6SM FEW010 RMK NXT FCST BY 190000Z
No reported NOTAMs for that airfield.



MET'MAP, your aeronautical weather chart ! - Copyright ORBIFLY December 2007 - Disclaimer

ORBIFLY MET'MAP TEAM :

Programming & Development : Alexandra Zaïnal
Concept & Development : Baudouin d'Aumeries
Co-Development & Prog : Marc-Olivier Méhu
Technical & hardware support : Manuel Goepfert

Contact : metmap@orbifly.com




SOURCES & CREDITS :

   NOAA       Earth
Advisory